sensor_id;sensor_type;location;lat;lon;timestamp;temperature;humidity
50560;DHT22;36510;52.610;13.468;2022-10-22T00:00:14;15.90;69.90
50560;DHT22;36510;52.610;13.468;2022-10-22T00:05:05;15.90;69.20
50560;DHT22;36510;52.610;13.468;2022-10-22T00:09:56;15.90;68.90
50560;DHT22;36510;52.610;13.468;2022-10-22T00:14:47;15.70;65.80
50560;DHT22;36510;52.610;13.468;2022-10-22T00:19:38;15.50;68.20
50560;DHT22;36510;52.610;13.468;2022-10-22T00:24:29;15.50;69.10
50560;DHT22;36510;52.610;13.468;2022-10-22T00:29:19;15.50;68.90
50560;DHT22;36510;52.610;13.468;2022-10-22T00:34:10;15.70;68.90
50560;DHT22;36510;52.610;13.468;2022-10-22T00:39:00;15.70;68.40
50560;DHT22;36510;52.610;13.468;2022-10-22T00:44:02;15.70;67.90
50560;DHT22;36510;52.610;13.468;2022-10-22T00:48:55;15.70;67.40
50560;DHT22;36510;52.610;13.468;2022-10-22T00:53:49;15.70;66.70
50560;DHT22;36510;52.610;13.468;2022-10-22T00:58:44;15.70;66.70
50560;DHT22;36510;52.610;13.468;2022-10-22T01:03:35;15.70;66.70
50560;DHT22;36510;52.610;13.468;2022-10-22T01:14:00;15.50;66.50
50560;DHT22;36510;52.610;13.468;2022-10-22T01:19:26;15.30;67.40
50560;DHT22;36510;52.610;13.468;2022-10-22T01:24:34;15.00;71.40
50560;DHT22;36510;52.610;13.468;2022-10-22T01:29:49;14.90;71.40
50560;DHT22;36510;52.610;13.468;2022-10-22T01:34:43;14.80;73.70
50560;DHT22;36510;52.610;13.468;2022-10-22T01:39:36;14.90;72.30
50560;DHT22;36510;52.610;13.468;2022-10-22T01:44:31;14.90;72.00
50560;DHT22;36510;52.610;13.468;2022-10-22T01:49:36;15.00;70.10
50560;DHT22;36510;52.610;13.468;2022-10-22T01:54:37;15.10;69.60
50560;DHT22;36510;52.610;13.468;2022-10-22T02:04:45;15.20;68.40
50560;DHT22;36510;52.610;13.468;2022-10-22T02:09:39;15.20;67.50
50560;DHT22;36510;52.610;13.468;2022-10-22T02:14:31;15.20;66.20
50560;DHT22;36510;52.610;13.468;2022-10-22T02:19:25;15.30;66.30
50560;DHT22;36510;52.610;13.468;2022-10-22T02:24:16;15.20;64.80
50560;DHT22;36510;52.610;13.468;2022-10-22T02:29:18;15.20;66.20
50560;DHT22;36510;52.610;13.468;2022-10-22T02:34:14;15.20;65.40
50560;DHT22;36510;52.610;13.468;2022-10-22T02:39:07;15.30;65.50
50560;DHT22;36510;52.610;13.468;2022-10-22T02:43:58;15.20;63.90
50560;DHT22;36510;52.610;13.468;2022-10-22T02:48:48;15.20;62.90
50560;DHT22;36510;52.610;13.468;2022-10-22T02:53:39;15.20;63.40
50560;DHT22;36510;52.610;13.468;2022-10-22T02:58:29;15.10;63.30
50560;DHT22;36510;52.610;13.468;2022-10-22T03:03:20;15.10;63.60
50560;DHT22;36510;52.610;13.468;2022-10-22T03:08:10;15.10;62.80
50560;DHT22;36510;52.610;13.468;2022-10-22T03:13:01;15.10;63.00
50560;DHT22;36510;52.610;13.468;2022-10-22T03:17:51;15.10;63.60
50560;DHT22;36510;52.610;13.468;2022-10-22T03:22:42;15.10;64.00
50560;DHT22;36510;52.610;13.468;2022-10-22T03:27:35;15.10;62.90
50560;DHT22;36510;52.610;13.468;2022-10-22T03:32:26;15.10;61.80
50560;DHT22;36510;52.610;13.468;2022-10-22T03:37:17;15.10;62.20
50560;DHT22;36510;52.610;13.468;2022-10-22T03:42:07;15.10;62.50
50560;DHT22;36510;52.610;13.468;2022-10-22T03:46:58;15.00;61.20
50560;DHT22;36510;52.610;13.468;2022-10-22T03:51:48;14.90;62.30
50560;DHT22;36510;52.610;13.468;2022-10-22T03:56:39;14.80;63.70
50560;DHT22;36510;52.610;13.468;2022-10-22T04:01:29;14.80;63.10
50560;DHT22;36510;52.610;13.468;2022-10-22T04:06:20;14.70;62.80
50560;DHT22;36510;52.610;13.468;2022-10-22T04:11:13;14.70;64.00
50560;DHT22;36510;52.610;13.468;2022-10-22T04:16:07;14.80;64.60
50560;DHT22;36510;52.610;13.468;2022-10-22T04:20:58;14.80;63.40
50560;DHT22;36510;52.610;13.468;2022-10-22T04:25:48;14.90;63.70
50560;DHT22;36510;52.610;13.468;2022-10-22T04:30:39;14.90;63.00
50560;DHT22;36510;52.610;13.468;2022-10-22T04:35:29;14.90;62.40
50560;DHT22;36510;52.610;13.468;2022-10-22T04:40:20;14.90;62.70
50560;DHT22;36510;52.610;13.468;2022-10-22T04:45:11;14.90;63.10
50560;DHT22;36510;52.610;13.468;2022-10-22T04:50:01;14.90;61.60
50560;DHT22;36510;52.610;13.468;2022-10-22T04:54:52;14.90;61.70
50560;DHT22;36510;52.610;13.468;2022-10-22T04:59:42;15.00;61.90
50560;DHT22;36510;52.610;13.468;2022-10-22T05:04:33;15.00;61.40
50560;DHT22;36510;52.610;13.468;2022-10-22T05:09:23;15.00;61.00
50560;DHT22;36510;52.610;13.468;2022-10-22T05:14:20;15.00;60.40
50560;DHT22;36510;52.610;13.468;2022-10-22T05:19:19;15.00;59.90
50560;DHT22;36510;52.610;13.468;2022-10-22T05:24:09;14.90;59.80
50560;DHT22;36510;52.610;13.468;2022-10-22T05:29:00;14.80;59.90
50560;DHT22;36510;52.610;13.468;2022-10-22T05:33:50;14.80;59.50
50560;DHT22;36510;52.610;13.468;2022-10-22T05:38:41;14.70;59.90
50560;DHT22;36510;52.610;13.468;2022-10-22T05:43:32;14.60;59.30
50560;DHT22;36510;52.610;13.468;2022-10-22T05:48:22;14.60;59.50
50560;DHT22;36510;52.610;13.468;2022-10-22T05:53:13;14.60;60.10
50560;DHT22;36510;52.610;13.468;2022-10-22T05:58:04;14.50;59.80
50560;DHT22;36510;52.610;13.468;2022-10-22T06:02:54;14.60;60.10
50560;DHT22;36510;52.610;13.468;2022-10-22T06:07:45;14.60;60.10
50560;DHT22;36510;52.610;13.468;2022-10-22T06:12:36;14.60;59.80
50560;DHT22;36510;52.610;13.468;2022-10-22T06:17:26;14.50;59.10
50560;DHT22;36510;52.610;13.468;2022-10-22T06:22:18;14.40;60.30
50560;DHT22;36510;52.610;13.468;2022-10-22T06:27:09;14.40;60.90
50560;DHT22;36510;52.610;13.468;2022-10-22T06:31:59;14.30;61.00
50560;DHT22;36510;52.610;13.468;2022-10-22T06:36:49;14.20;62.60
50560;DHT22;36510;52.610;13.468;2022-10-22T06:41:41;14.20;65.10
50560;DHT22;36510;52.610;13.468;2022-10-22T06:46:31;14.20;65.50
50560;DHT22;36510;52.610;13.468;2022-10-22T06:51:22;14.30;66.20
50560;DHT22;36510;52.610;13.468;2022-10-22T06:56:15;14.40;65.40
50560;DHT22;36510;52.610;13.468;2022-10-22T07:01:08;14.50;65.40
50560;DHT22;36510;52.610;13.468;2022-10-22T07:06:03;14.50;66.40
50560;DHT22;36510;52.610;13.468;2022-10-22T07:10:54;14.60;67.50
50560;DHT22;36510;52.610;13.468;2022-10-22T07:15:50;14.60;68.70
50560;DHT22;36510;52.610;13.468;2022-10-22T07:20:40;14.60;69.50
50560;DHT22;36510;52.610;13.468;2022-10-22T07:25:31;14.70;70.00
50560;DHT22;36510;52.610;13.468;2022-10-22T07:30:21;14.80;70.00
50560;DHT22;36510;52.610;13.468;2022-10-22T07:35:12;14.90;69.70
50560;DHT22;36510;52.610;13.468;2022-10-22T07:40:02;15.00;69.80
50560;DHT22;36510;52.610;13.468;2022-10-22T07:44:53;15.00;70.30
50560;DHT22;36510;52.610;13.468;2022-10-22T07:49:43;15.10;70.50
50560;DHT22;36510;52.610;13.468;2022-10-22T07:54:34;15.20;71.10
50560;DHT22;36510;52.610;13.468;2022-10-22T07:59:24;15.30;71.40
50560;DHT22;36510;52.610;13.468;2022-10-22T08:04:14;15.40;71.10
50560;DHT22;36510;52.610;13.468;2022-10-22T08:09:05;15.50;71.20
50560;DHT22;36510;52.610;13.468;2022-10-22T08:13:56;15.60;70.90
50560;DHT22;36510;52.610;13.468;2022-10-22T08:18:46;15.50;71.60
50560;DHT22;36510;52.610;13.468;2022-10-22T08:23:37;15.50;71.30
50560;DHT22;36510;52.610;13.468;2022-10-22T08:28:28;15.30;72.60
50560;DHT22;36510;52.610;13.468;2022-10-22T08:33:19;15.40;73.60
50560;DHT22;36510;52.610;13.468;2022-10-22T08:38:09;15.50;73.10
50560;DHT22;36510;52.610;13.468;2022-10-22T08:48:15;15.70;71.30
50560;DHT22;36510;52.610;13.468;2022-10-22T08:53:17;15.80;70.70
50560;DHT22;36510;52.610;13.468;2022-10-22T08:58:20;15.80;70.80
50560;DHT22;36510;52.610;13.468;2022-10-22T09:03:33;15.90;70.60
50560;DHT22;36510;52.610;13.468;2022-10-22T09:08:25;16.00;70.40
50560;DHT22;36510;52.610;13.468;2022-10-22T09:13:19;16.00;69.30
50560;DHT22;36510;52.610;13.468;2022-10-22T09:18:28;15.90;69.60
50560;DHT22;36510;52.610;13.468;2022-10-22T09:23:32;16.00;69.80
50560;DHT22;36510;52.610;13.468;2022-10-22T09:28:24;16.00;69.30
50560;DHT22;36510;52.610;13.468;2022-10-22T09:33:17;16.10;68.90
50560;DHT22;36510;52.610;13.468;2022-10-22T09:38:07;16.10;69.60
50560;DHT22;36510;52.610;13.468;2022-10-22T09:42:58;16.10;69.10
50560;DHT22;36510;52.610;13.468;2022-10-22T09:47:49;16.20;68.80
50560;DHT22;36510;52.610;13.468;2022-10-22T09:52:39;16.20;68.50
50560;DHT22;36510;52.610;13.468;2022-10-22T09:57:31;16.40;68.00
50560;DHT22;36510;52.610;13.468;2022-10-22T10:02:26;16.50;67.80
50560;DHT22;36510;52.610;13.468;2022-10-22T10:07:19;16.50;67.50
50560;DHT22;36510;52.610;13.468;2022-10-22T10:17:59;16.60;67.60
50560;DHT22;36510;52.610;13.468;2022-10-22T10:23:06;16.60;67.60
50560;DHT22;36510;52.610;13.468;2022-10-22T10:28:17;16.70;67.80
50560;DHT22;36510;52.610;13.468;2022-10-22T10:33:23;16.70;67.60
50560;DHT22;36510;52.610;13.468;2022-10-22T10:38:37;16.80;67.90
50560;DHT22;36510;52.610;13.468;2022-10-22T10:43:41;16.80;67.40
50560;DHT22;36510;52.610;13.468;2022-10-22T10:48:54;16.80;67.00
50560;DHT22;36510;52.610;13.468;2022-10-22T10:59:15;16.80;67.90
50560;DHT22;36510;52.610;13.468;2022-10-22T11:04:32;16.80;67.90
50560;DHT22;36510;52.610;13.468;2022-10-22T11:09:27;16.80;67.90
50560;DHT22;36510;52.610;13.468;2022-10-22T11:14:40;16.90;68.00
50560;DHT22;36510;52.610;13.468;2022-10-22T11:19:44;17.00;67.30
50560;DHT22;36510;52.610;13.468;2022-10-22T11:24:45;17.20;68.00
50560;DHT22;36510;52.610;13.468;2022-10-22T11:29:43;17.50;68.00
50560;DHT22;36510;52.610;13.468;2022-10-22T11:34:45;17.70;64.50
50560;DHT22;36510;52.610;13.468;2022-10-22T11:39:41;17.70;62.40
50560;DHT22;36510;52.610;13.468;2022-10-22T11:44:45;17.70;62.90
50560;DHT22;36510;52.610;13.468;2022-10-22T11:49:44;17.80;62.40
50560;DHT22;36510;52.610;13.468;2022-10-22T11:59:41;18.00;61.00
50560;DHT22;36510;52.610;13.468;2022-10-22T12:04:40;18.00;61.80
50560;DHT22;36510;52.610;13.468;2022-10-22T12:09:32;18.20;61.20
50560;DHT22;36510;52.610;13.468;2022-10-22T12:14:25;18.50;59.30
50560;DHT22;36510;52.610;13.468;2022-10-22T12:24:18;18.80;56.70
50560;DHT22;36510;52.610;13.468;2022-10-22T12:29:11;18.80;57.10
50560;DHT22;36510;52.610;13.468;2022-10-22T12:34:03;19.00;56.70
50560;DHT22;36510;52.610;13.468;2022-10-22T12:38:53;19.10;55.20
50560;DHT22;36510;52.610;13.468;2022-10-22T12:43:44;19.30;55.30
50560;DHT22;36510;52.610;13.468;2022-10-22T12:48:38;19.50;53.50
50560;DHT22;36510;52.610;13.468;2022-10-22T12:53:38;19.60;52.10
50560;DHT22;36510;52.610;13.468;2022-10-22T12:58:44;19.80;52.30
50560;DHT22;36510;52.610;13.468;2022-10-22T13:03:40;19.90;47.60
50560;DHT22;36510;52.610;13.468;2022-10-22T13:08:33;20.00;48.30
50560;DHT22;36510;52.610;13.468;2022-10-22T13:13:31;20.00;47.60
50560;DHT22;36510;52.610;13.468;2022-10-22T13:18:23;20.00;46.90
50560;DHT22;36510;52.610;13.468;2022-10-22T13:23:25;20.00;48.10
50560;DHT22;36510;52.610;13.468;2022-10-22T13:28:19;20.20;47.30
50560;DHT22;36510;52.610;13.468;2022-10-22T13:33:40;20.20;45.00
50560;DHT22;36510;52.610;13.468;2022-10-22T13:38:30;20.30;45.20
50560;DHT22;36510;52.610;13.468;2022-10-22T13:43:21;20.30;45.50
50560;DHT22;36510;52.610;13.468;2022-10-22T13:48:14;20.20;43.00
50560;DHT22;36510;52.610;13.468;2022-10-22T13:53:04;20.20;43.20
50560;DHT22;36510;52.610;13.468;2022-10-22T13:58:09;20.10;44.00
50560;DHT22;36510;52.610;13.468;2022-10-22T14:02:59;19.90;44.90
50560;DHT22;36510;52.610;13.468;2022-10-22T14:07:51;19.80;45.90
50560;DHT22;36510;52.610;13.468;2022-10-22T14:12:41;19.60;45.30
50560;DHT22;36510;52.610;13.468;2022-10-22T14:17:32;19.60;45.30
50560;DHT22;36510;52.610;13.468;2022-10-22T14:22:24;19.50;45.80
50560;DHT22;36510;52.610;13.468;2022-10-22T14:27:16;19.40;46.90
50560;DHT22;36510;52.610;13.468;2022-10-22T14:32:15;19.40;47.70
50560;DHT22;36510;52.610;13.468;2022-10-22T14:37:19;19.30;47.40
50560;DHT22;36510;52.610;13.468;2022-10-22T14:42:10;19.20;49.00
50560;DHT22;36510;52.610;13.468;2022-10-22T14:47:00;19.30;48.40
50560;DHT22;36510;52.610;13.468;2022-10-22T14:51:51;19.20;48.20
50560;DHT22;36510;52.610;13.468;2022-10-22T14:56:41;19.20;48.10
50560;DHT22;36510;52.610;13.468;2022-10-22T15:01:32;19.20;47.80
50560;DHT22;36510;52.610;13.468;2022-10-22T15:06:22;19.10;48.00
50560;DHT22;36510;52.610;13.468;2022-10-22T15:11:12;19.10;48.40
50560;DHT22;36510;52.610;13.468;2022-10-22T15:16:08;19.10;48.80
50560;DHT22;36510;52.610;13.468;2022-10-22T15:21:01;19.10;48.90
50560;DHT22;36510;52.610;13.468;2022-10-22T15:25:52;19.00;49.50
50560;DHT22;36510;52.610;13.468;2022-10-22T15:30:42;18.90;50.50
50560;DHT22;36510;52.610;13.468;2022-10-22T15:35:33;18.70;52.20
50560;DHT22;36510;52.610;13.468;2022-10-22T15:40:24;18.50;52.00
50560;DHT22;36510;52.610;13.468;2022-10-22T15:45:14;18.30;52.70
50560;DHT22;36510;52.610;13.468;2022-10-22T15:50:05;18.10;53.50
50560;DHT22;36510;52.610;13.468;2022-10-22T15:54:56;18.00;54.10
50560;DHT22;36510;52.610;13.468;2022-10-22T15:59:46;17.90;54.00
50560;DHT22;36510;52.610;13.468;2022-10-22T16:04:39;17.70;54.10
50560;DHT22;36510;52.610;13.468;2022-10-22T16:09:29;17.70;54.70
50560;DHT22;36510;52.610;13.468;2022-10-22T16:14:21;17.60;54.20
50560;DHT22;36510;52.610;13.468;2022-10-22T16:19:14;17.50;54.20
50560;DHT22;36510;52.610;13.468;2022-10-22T16:24:07;17.40;53.90
50560;DHT22;36510;52.610;13.468;2022-10-22T16:28:57;17.30;54.00
50560;DHT22;36510;52.610;13.468;2022-10-22T16:33:48;17.20;53.40
50560;DHT22;36510;52.610;13.468;2022-10-22T16:38:39;17.10;54.10
50560;DHT22;36510;52.610;13.468;2022-10-22T16:43:29;17.00;54.30
50560;DHT22;36510;52.610;13.468;2022-10-22T16:48:20;16.80;53.40
50560;DHT22;36510;52.610;13.468;2022-10-22T16:53:10;16.70;54.20
50560;DHT22;36510;52.610;13.468;2022-10-22T16:58:01;16.60;55.00
50560;DHT22;36510;52.610;13.468;2022-10-22T17:02:52;16.50;54.30
50560;DHT22;36510;52.610;13.468;2022-10-22T17:07:43;16.40;54.00
50560;DHT22;36510;52.610;13.468;2022-10-22T17:12:34;16.20;54.70
50560;DHT22;36510;52.610;13.468;2022-10-22T17:17:24;16.10;55.10
50560;DHT22;36510;52.610;13.468;2022-10-22T17:22:15;16.00;55.70
50560;DHT22;36510;52.610;13.468;2022-10-22T17:27:05;15.90;56.80
50560;DHT22;36510;52.610;13.468;2022-10-22T17:31:55;16.00;57.00
50560;DHT22;36510;52.610;13.468;2022-10-22T17:36:46;16.10;56.90
50560;DHT22;36510;52.610;13.468;2022-10-22T17:41:37;16.10;56.70
50560;DHT22;36510;52.610;13.468;2022-10-22T17:46:29;16.20;56.80
50560;DHT22;36510;52.610;13.468;2022-10-22T17:51:20;16.20;56.50
50560;DHT22;36510;52.610;13.468;2022-10-22T17:56:14;16.20;56.00
50560;DHT22;36510;52.610;13.468;2022-10-22T18:01:05;16.10;55.70
50560;DHT22;36510;52.610;13.468;2022-10-22T18:05:55;16.10;56.00
50560;DHT22;36510;52.610;13.468;2022-10-22T18:10:53;16.10;55.40
50560;DHT22;36510;52.610;13.468;2022-10-22T18:15:44;16.00;55.10
50560;DHT22;36510;52.610;13.468;2022-10-22T18:20:34;16.00;54.80
50560;DHT22;36510;52.610;13.468;2022-10-22T18:25:25;16.00;55.40
50560;DHT22;36510;52.610;13.468;2022-10-22T18:30:15;16.00;58.30
50560;DHT22;36510;52.610;13.468;2022-10-22T18:35:06;16.10;59.70
50560;DHT22;36510;52.610;13.468;2022-10-22T18:39:57;16.20;58.70
50560;DHT22;36510;52.610;13.468;2022-10-22T18:44:49;16.30;57.70
50560;DHT22;36510;52.610;13.468;2022-10-22T18:49:40;16.40;58.50
50560;DHT22;36510;52.610;13.468;2022-10-22T18:54:31;16.40;58.60
50560;DHT22;36510;52.610;13.468;2022-10-22T18:59:24;16.40;59.10
50560;DHT22;36510;52.610;13.468;2022-10-22T19:04:15;16.50;58.90
50560;DHT22;36510;52.610;13.468;2022-10-22T19:09:05;16.60;58.30
50560;DHT22;36510;52.610;13.468;2022-10-22T19:13:58;16.60;57.80
50560;DHT22;36510;52.610;13.468;2022-10-22T19:18:57;16.60;56.90
50560;DHT22;36510;52.610;13.468;2022-10-22T19:23:47;16.50;56.80
50560;DHT22;36510;52.610;13.468;2022-10-22T19:28:39;16.30;58.30
50560;DHT22;36510;52.610;13.468;2022-10-22T19:33:29;16.30;57.90
50560;DHT22;36510;52.610;13.468;2022-10-22T19:38:20;16.20;58.10
50560;DHT22;36510;52.610;13.468;2022-10-22T19:43:10;16.30;57.70
50560;DHT22;36510;52.610;13.468;2022-10-22T19:48:01;16.20;57.50
50560;DHT22;36510;52.610;13.468;2022-10-22T19:52:51;16.20;57.60
50560;DHT22;36510;52.610;13.468;2022-10-22T19:57:41;16.20;57.60
50560;DHT22;36510;52.610;13.468;2022-10-22T20:02:32;16.10;57.00
50560;DHT22;36510;52.610;13.468;2022-10-22T20:07:22;16.00;58.50
50560;DHT22;36510;52.610;13.468;2022-10-22T20:12:13;16.00;59.30
50560;DHT22;36510;52.610;13.468;2022-10-22T20:17:03;16.10;58.10
50560;DHT22;36510;52.610;13.468;2022-10-22T20:21:54;16.20;58.30
50560;DHT22;36510;52.610;13.468;2022-10-22T20:26:45;16.30;57.30
50560;DHT22;36510;52.610;13.468;2022-10-22T20:31:36;16.30;57.40
50560;DHT22;36510;52.610;13.468;2022-10-22T20:36:28;16.30;57.50
50560;DHT22;36510;52.610;13.468;2022-10-22T20:41:20;16.40;57.00
50560;DHT22;36510;52.610;13.468;2022-10-22T20:46:20;16.30;56.80
50560;DHT22;36510;52.610;13.468;2022-10-22T20:51:12;16.40;56.90
50560;DHT22;36510;52.610;13.468;2022-10-22T20:56:03;16.40;56.70
50560;DHT22;36510;52.610;13.468;2022-10-22T21:00:53;16.50;56.10
50560;DHT22;36510;52.610;13.468;2022-10-22T21:05:44;16.40;56.80
50560;DHT22;36510;52.610;13.468;2022-10-22T21:10:35;16.40;57.30
50560;DHT22;36510;52.610;13.468;2022-10-22T21:15:26;16.30;57.30
50560;DHT22;36510;52.610;13.468;2022-10-22T21:20:16;16.30;57.10
50560;DHT22;36510;52.610;13.468;2022-10-22T21:25:07;16.30;57.40
50560;DHT22;36510;52.610;13.468;2022-10-22T21:29:58;16.40;57.20
50560;DHT22;36510;52.610;13.468;2022-10-22T21:34:48;16.40;57.20
50560;DHT22;36510;52.610;13.468;2022-10-22T21:39:39;16.30;57.30
50560;DHT22;36510;52.610;13.468;2022-10-22T21:44:29;16.30;57.20
50560;DHT22;36510;52.610;13.468;2022-10-22T21:49:19;16.40;57.60
50560;DHT22;36510;52.610;13.468;2022-10-22T21:54:10;16.30;57.70
50560;DHT22;36510;52.610;13.468;2022-10-22T21:59:03;16.30;57.70
50560;DHT22;36510;52.610;13.468;2022-10-22T22:03:54;16.20;58.10
50560;DHT22;36510;52.610;13.468;2022-10-22T22:08:44;16.20;58.30
50560;DHT22;36510;52.610;13.468;2022-10-22T22:13:35;16.30;58.10
50560;DHT22;36510;52.610;13.468;2022-10-22T22:18:26;16.30;57.70
50560;DHT22;36510;52.610;13.468;2022-10-22T22:23:17;16.20;58.00
50560;DHT22;36510;52.610;13.468;2022-10-22T22:28:07;16.20;58.00
50560;DHT22;36510;52.610;13.468;2022-10-22T22:32:58;16.20;57.50
50560;DHT22;36510;52.610;13.468;2022-10-22T22:37:48;16.30;56.90
50560;DHT22;36510;52.610;13.468;2022-10-22T22:42:39;16.30;56.80
50560;DHT22;36510;52.610;13.468;2022-10-22T22:47:29;16.20;56.10
50560;DHT22;36510;52.610;13.468;2022-10-22T22:52:20;16.20;55.90
50560;DHT22;36510;52.610;13.468;2022-10-22T22:57:10;16.00;54.90
50560;DHT22;36510;52.610;13.468;2022-10-22T23:02:01;15.90;55.40
50560;DHT22;36510;52.610;13.468;2022-10-22T23:06:51;15.90;55.60
50560;DHT22;36510;52.610;13.468;2022-10-22T23:11:43;15.90;54.70
50560;DHT22;36510;52.610;13.468;2022-10-22T23:16:36;15.80;55.10
50560;DHT22;36510;52.610;13.468;2022-10-22T23:21:35;15.80;54.50
50560;DHT22;36510;52.610;13.468;2022-10-22T23:26:29;15.70;54.60
50560;DHT22;36510;52.610;13.468;2022-10-22T23:31:20;15.60;54.80
50560;DHT22;36510;52.610;13.468;2022-10-22T23:36:13;15.60;55.00
50560;DHT22;36510;52.610;13.468;2022-10-22T23:41:05;15.50;54.80
50560;DHT22;36510;52.610;13.468;2022-10-22T23:45:55;15.40;55.20
50560;DHT22;36510;52.610;13.468;2022-10-22T23:50:46;15.40;56.20
50560;DHT22;36510;52.610;13.468;2022-10-22T23:55:41;15.30;57.10
